sensor_id;sensor_type;location;lat;lon;timestamp;pressure;altitude;pressure_sealevel;temperature;humidity
15477;BME280;7840;42.702;23.296;2023-09-08T00:00:53;95577.69;;;19.87;100.00
15477;BME280;7840;42.702;23.296;2023-09-08T00:03:21;95580.06;;;19.89;100.00
15477;BME280;7840;42.702;23.296;2023-09-08T00:05:49;95583.78;;;19.93;100.00
15477;BME280;7840;42.702;23.296;2023-09-08T00:08:16;95581.09;;;19.93;100.00
15477;BME280;7840;42.702;23.296;2023-09-08T00:10:44;95582.13;;;19.97;100.00
15477;BME280;7840;42.702;23.296;2023-09-08T00:13:13;95582.13;;;19.97;100.00
15477;BME280;7840;42.702;23.296;2023-09-08T00:15:40;95583.47;;;19.94;100.00
15477;BME280;7840;42.702;23.296;2023-09-08T00:18:08;95574.97;;;20.06;100.00
15477;BME280;7840;42.702;23.296;2023-09-08T00:20:36;95569.31;;;19.89;100.00
15477;BME280;7840;42.702;23.296;2023-09-08T00:23:03;95575.00;;;19.87;100.00
15477;BME280;7840;42.702;23.296;2023-09-08T00:25:31;95579.22;;;19.75;100.00
15477;BME280;7840;42.702;23.296;2023-09-08T00:27:58;95570.34;;;19.74;100.00
15477;BME280;7840;42.702;23.296;2023-09-08T00:30:28;95565.53;;;19.52;100.00
15477;BME280;7840;42.702;23.296;2023-09-08T00:32:55;95568.72;;;19.54;100.00
15477;BME280;7840;42.702;23.296;2023-09-08T00:35:23;95572.69;;;19.62;100.00
15477;BME280;7840;42.702;23.296;2023-09-08T00:37:50;95569.31;;;19.51;100.00
15477;BME280;7840;42.702;23.296;2023-09-08T00:40:18;95564.50;;;19.48;100.00
15477;BME280;7840;42.702;23.296;2023-09-08T00:42:47;95557.25;;;19.49;100.00
15477;BME280;7840;42.702;23.296;2023-09-08T00:45:14;95555.38;;;19.49;100.00
15477;BME280;7840;42.702;23.296;2023-09-08T00:47:43;95554.72;;;19.38;100.00
15477;BME280;7840;42.702;23.296;2023-09-08T00:50:12;95558.16;;;19.44;100.00
15477;BME280;7840;42.702;23.296;2023-09-08T00:52:39;95553.56;;;19.45;100.00
15477;BME280;7840;42.702;23.296;2023-09-08T00:55:08;95558.16;;;19.44;100.00
15477;BME280;7840;42.702;23.296;2023-09-08T00:57:38;95556.25;;;19.45;100.00
15477;BME280;7840;42.702;23.296;2023-09-08T01:00:07;95556.69;;;19.33;100.00
15477;BME280;7840;42.702;23.296;2023-09-08T01:02:35;95554.50;;;19.35;100.00
15477;BME280;7840;42.702;23.296;2023-09-08T01:05:04;95551.19;;;19.43;100.00
15477;BME280;7840;42.702;23.296;2023-09-08T01:07:33;95564.75;;;19.52;100.00
15477;BME280;7840;42.702;23.296;2023-09-08T01:10:01;95556.38;;;19.53;100.00
15477;BME280;7840;42.702;23.296;2023-09-08T01:12:32;95552.84;;;19.39;100.00
15477;BME280;7840;42.702;23.296;2023-09-08T01:15:01;95563.09;;;19.37;100.00
15477;BME280;7840;42.702;23.296;2023-09-08T01:17:28;95551.75;;;19.40;100.00
15477;BME280;7840;42.702;23.296;2023-09-08T01:19:56;95557.13;;;19.40;100.00
15477;BME280;7840;42.702;23.296;2023-09-08T01:22:44;95554.06;;;19.28;100.00
15477;BME280;7840;42.702;23.296;2023-09-08T01:25:18;95552.38;;;19.13;100.00
15477;BME280;7840;42.702;23.296;2023-09-08T01:27:48;95558.03;;;19.11;100.00
15477;BME280;7840;42.702;23.296;2023-09-08T01:30:17;95560.88;;;19.01;100.00
15477;BME280;7840;42.702;23.296;2023-09-08T01:32:45;95556.44;;;19.10;100.00
15477;BME280;7840;42.702;23.296;2023-09-08T01:35:13;95554.31;;;19.07;100.00
15477;BME280;7840;42.702;23.296;2023-09-08T01:37:42;95549.97;;;19.11;100.00
15477;BME280;7840;42.702;23.296;2023-09-08T01:40:10;95547.00;;;19.13;100.00
15477;BME280;7840;42.702;23.296;2023-09-08T01:42:39;95538.59;;;19.20;100.00
15477;BME280;7840;42.702;23.296;2023-09-08T01:45:08;95538.16;;;19.12;100.00
15477;BME280;7840;42.702;23.296;2023-09-08T01:47:36;95549.47;;;19.09;100.00
15477;BME280;7840;42.702;23.296;2023-09-08T01:50:04;95552.16;;;19.09;100.00
15477;BME280;7840;42.702;23.296;2023-09-08T01:52:32;95549.88;;;19.22;100.00
15477;BME280;7840;42.702;23.296;2023-09-08T01:54:59;95544.84;;;19.15;100.00
15477;BME280;7840;42.702;23.296;2023-09-08T01:57:27;95542.66;;;19.17;100.00
15477;BME280;7840;42.702;23.296;2023-09-08T01:59:56;95545.41;;;19.12;100.00
15477;BME280;7840;42.702;23.296;2023-09-08T02:02:23;95547.94;;;19.03;100.00
15477;BME280;7840;42.702;23.296;2023-09-08T02:04:51;95545.31;;;18.98;100.00
15477;BME280;7840;42.702;23.296;2023-09-08T02:07:18;95544.88;;;18.91;100.00
15477;BME280;7840;42.702;23.296;2023-09-08T02:09:46;95546.09;;;18.99;100.00
15477;BME280;7840;42.702;23.296;2023-09-08T02:12:13;95543.63;;;18.83;100.00
15477;BME280;7840;42.702;23.296;2023-09-08T02:14:41;95539.63;;;18.81;100.00
15477;BME280;7840;42.702;23.296;2023-09-08T02:17:10;95550.50;;;18.66;100.00
15477;BME280;7840;42.702;23.296;2023-09-08T02:19:37;95544.09;;;18.67;100.00
15477;BME280;7840;42.702;23.296;2023-09-08T02:22:05;95533.88;;;18.69;100.00
15477;BME280;7840;42.702;23.296;2023-09-08T02:24:33;95536.16;;;18.51;100.00
15477;BME280;7840;42.702;23.296;2023-09-08T02:27:00;95537.75;;;18.52;100.00
15477;BME280;7840;42.702;23.296;2023-09-08T02:29:28;95533.13;;;18.58;100.00
15477;BME280;7840;42.702;23.296;2023-09-08T02:31:55;95537.06;;;18.66;100.00
15477;BME280;7840;42.702;23.296;2023-09-08T02:34:29;95532.78;;;18.70;100.00
15477;BME280;7840;42.702;23.296;2023-09-08T02:37:00;95535.97;;;18.72;100.00
15477;BME280;7840;42.702;23.296;2023-09-08T02:39:27;95535.47;;;18.65;100.00
15477;BME280;7840;42.702;23.296;2023-09-08T02:41:55;95535.47;;;18.65;100.00
15477;BME280;7840;42.702;23.296;2023-09-08T02:44:22;95530.69;;;18.62;100.00
15477;BME280;7840;42.702;23.296;2023-09-08T02:46:51;95536.97;;;18.52;100.00
15477;BME280;7840;42.702;23.296;2023-09-08T02:49:19;95524.41;;;18.47;100.00
15477;BME280;7840;42.702;23.296;2023-09-08T02:51:48;95535.69;;;18.44;100.00
15477;BME280;7840;42.702;23.296;2023-09-08T02:54:15;95536.84;;;18.38;100.00
15477;BME280;7840;42.702;23.296;2023-09-08T02:56:43;95532.88;;;18.30;100.00
15477;BME280;7840;42.702;23.296;2023-09-08T02:59:10;95531.34;;;18.24;100.00
15477;BME280;7840;42.702;23.296;2023-09-08T03:01:38;95525.19;;;18.24;100.00
15477;BME280;7840;42.702;23.296;2023-09-08T03:04:06;95533.88;;;18.11;100.00
15477;BME280;7840;42.702;23.296;2023-09-08T03:06:35;95533.09;;;18.10;100.00
15477;BME280;7840;42.702;23.296;2023-09-08T03:09:04;95536.09;;;18.03;100.00
15477;BME280;7840;42.702;23.296;2023-09-08T03:11:31;95530.69;;;18.09;100.00
15477;BME280;7840;42.702;23.296;2023-09-08T03:13:59;95531.81;;;18.02;100.00
15477;BME280;7840;42.702;23.296;2023-09-08T03:16:26;95535.00;;;18.04;100.00
15477;BME280;7840;42.702;23.296;2023-09-08T03:18:54;95529.25;;;17.92;100.00
15477;BME280;7840;42.702;23.296;2023-09-08T03:21:22;95529.72;;;17.99;100.00
15477;BME280;7840;42.702;23.296;2023-09-08T03:23:49;95532.91;;;18.01;100.00
15477;BME280;7840;42.702;23.296;2023-09-08T03:26:18;95526.41;;;18.08;100.00
15477;BME280;7840;42.702;23.296;2023-09-08T03:28:46;95525.91;;;18.06;100.00
15477;BME280;7840;42.702;23.296;2023-09-08T03:31:13;95529.59;;;18.10;100.00
15477;BME280;7840;42.702;23.296;2023-09-08T03:33:41;95539.31;;;18.06;100.00
15477;BME280;7840;42.702;23.296;2023-09-08T03:36:09;95535.94;;;17.90;100.00
15477;BME280;7840;42.702;23.296;2023-09-08T03:38:36;95538.91;;;17.88;100.00
15477;BME280;7840;42.702;23.296;2023-09-08T03:41:04;95531.50;;;17.70;100.00
15477;BME280;7840;42.702;23.296;2023-09-08T03:43:33;95533.69;;;17.73;100.00
15477;BME280;7840;42.702;23.296;2023-09-08T03:46:00;95536.34;;;17.78;100.00
15477;BME280;7840;42.702;23.296;2023-09-08T03:48:28;95538.44;;;17.81;100.00
15477;BME280;7840;42.702;23.296;2023-09-08T03:50:55;95532.28;;;17.81;100.00
15477;BME280;7840;42.702;23.296;2023-09-08T03:53:23;95539.19;;;17.87;100.00
15477;BME280;7840;42.702;23.296;2023-09-08T03:55:51;95536.22;;;17.88;100.00
15477;BME280;7840;42.702;23.296;2023-09-08T03:58:18;95536.75;;;17.90;100.00
15477;BME280;7840;42.702;23.296;2023-09-08T04:00:47;95534.34;;;17.89;100.00
15477;BME280;7840;42.702;23.296;2023-09-08T04:03:15;95544.84;;;17.85;100.00
15477;BME280;7840;42.702;23.296;2023-09-08T04:05:42;95540.03;;;17.82;100.00
15477;BME280;7840;42.702;23.296;2023-09-08T04:08:10;95544.38;;;17.78;100.00
15477;BME280;7840;42.702;23.296;2023-09-08T04:10:38;95539.00;;;17.78;100.00
15477;BME280;7840;42.702;23.296;2023-09-08T04:13:05;95541.13;;;17.81;100.00
15477;BME280;7840;42.702;23.296;2023-09-08T04:15:33;95540.28;;;17.86;100.00
15477;BME280;7840;42.702;23.296;2023-09-08T04:18:02;95537.88;;;17.84;100.00
15477;BME280;7840;42.702;23.296;2023-09-08T04:20:29;95538.91;;;17.88;100.00
15477;BME280;7840;42.702;23.296;2023-09-08T04:22:57;95545.31;;;17.92;100.00
15477;BME280;7840;42.702;23.296;2023-09-08T04:25:24;95542.81;;;17.67;100.00
15477;BME280;7840;42.702;23.296;2023-09-08T04:27:52;95540.28;;;17.41;100.00
15477;BME280;7840;42.702;23.296;2023-09-08T04:30:19;95554.72;;;17.50;100.00
15477;BME280;7840;42.702;23.296;2023-09-08T04:32:47;95554.63;;;17.61;100.00
15477;BME280;7840;42.702;23.296;2023-09-08T04:35:16;95551.94;;;17.61;100.00
15477;BME280;7840;42.702;23.296;2023-09-08T04:37:44;95563.19;;;17.63;100.00
15477;BME280;7840;42.702;23.296;2023-09-08T04:40:11;95563.25;;;17.58;100.00
15477;BME280;7840;42.702;23.296;2023-09-08T04:42:39;95568.50;;;17.68;100.00
15477;BME280;7840;42.702;23.296;2023-09-08T04:45:07;95564.66;;;17.84;100.00
15477;BME280;7840;42.702;23.296;2023-09-08T04:47:36;95562.72;;;17.95;100.00
15477;BME280;7840;42.702;23.296;2023-09-08T04:50:06;95559.41;;;18.03;100.00
15477;BME280;7840;42.702;23.296;2023-09-08T04:52:35;95555.94;;;18.02;100.00
15477;BME280;7840;42.702;23.296;2023-09-08T04:55:03;95555.28;;;18.16;100.00
15477;BME280;7840;42.702;23.296;2023-09-08T04:57:31;95554.63;;;18.29;100.00
15477;BME280;7840;42.702;23.296;2023-09-08T04:59:58;95554.16;;;18.22;100.00
15477;BME280;7840;42.702;23.296;2023-09-08T05:02:26;95558.94;;;18.25;100.00
15477;BME280;7840;42.702;23.296;2023-09-08T05:04:53;95558.94;;;18.25;100.00
15477;BME280;7840;42.702;23.296;2023-09-08T05:07:21;95562.06;;;18.37;100.00
15477;BME280;7840;42.702;23.296;2023-09-08T05:09:50;95558.22;;;18.48;100.00
15477;BME280;7840;42.702;23.296;2023-09-08T05:12:17;95556.94;;;18.65;100.00
15477;BME280;7840;42.702;23.296;2023-09-08T05:14:45;95550.94;;;18.78;100.00
15477;BME280;7840;42.702;23.296;2023-09-08T05:17:15;95550.22;;;18.91;100.00
15477;BME280;7840;42.702;23.296;2023-09-08T05:19:43;95554.31;;;19.07;100.00
15477;BME280;7840;42.702;23.296;2023-09-08T05:22:11;95548.94;;;19.07;100.00
15477;BME280;7840;42.702;23.296;2023-09-08T05:24:38;95549.38;;;19.14;100.00
15477;BME280;7840;42.702;23.296;2023-09-08T05:27:07;95543.84;;;19.30;100.00
15477;BME280;7840;42.702;23.296;2023-09-08T05:29:35;95551.59;;;19.50;100.00
15477;BME280;7840;42.702;23.296;2023-09-08T05:32:02;95550.91;;;19.63;100.00
15477;BME280;7840;42.702;23.296;2023-09-08T05:37:00;95544.63;;;19.87;100.00
15477;BME280;7840;42.702;23.296;2023-09-08T05:39:27;95542.84;;;19.96;100.00
15477;BME280;7840;42.702;23.296;2023-09-08T05:41:55;95550.78;;;20.06;100.00
15477;BME280;7840;42.702;23.296;2023-09-08T05:44:24;95545.47;;;20.01;100.00
15477;BME280;7840;42.702;23.296;2023-09-08T05:46:51;95553.47;;;20.06;100.00
15477;BME280;7840;42.702;23.296;2023-09-08T05:49:19;95548.00;;;20.11;100.00
15477;BME280;7840;42.702;23.296;2023-09-08T05:51:47;95548.91;;;20.20;100.00
15477;BME280;7840;42.702;23.296;2023-09-08T05:54:15;95542.75;;;20.34;100.00
15477;BME280;7840;42.702;23.296;2023-09-08T05:56:43;95541.56;;;20.40;100.00
15477;BME280;7840;42.702;23.296;2023-09-08T05:59:12;95540.00;;;20.39;100.00
15477;BME280;7840;42.702;23.296;2023-09-08T06:01:41;95541.16;;;20.33;100.00
15477;BME280;7840;42.702;23.296;2023-09-08T06:04:10;95547.41;;;20.47;100.00
15477;BME280;7840;42.702;23.296;2023-09-08T06:06:38;95544.81;;;20.56;100.00
15477;BME280;7840;42.702;23.296;2023-09-08T06:09:06;95543.63;;;20.62;100.00
15477;BME280;7840;42.702;23.296;2023-09-08T06:11:34;95552.19;;;20.77;100.00
15477;BME280;7840;42.702;23.296;2023-09-08T06:14:02;95544.72;;;20.74;100.00
15477;BME280;7840;42.702;23.296;2023-09-08T06:16:30;95547.03;;;20.95;100.00
15477;BME280;7840;42.702;23.296;2023-09-08T06:18:59;95550.59;;;21.04;100.00
15477;BME280;7840;42.702;23.296;2023-09-08T06:21:26;95548.19;;;21.16;100.00
15477;BME280;7840;42.702;23.296;2023-09-08T06:23:54;95549.38;;;21.38;100.00
15477;BME280;7840;42.702;23.296;2023-09-08T06:26:21;95547.06;;;21.45;100.00
15477;BME280;7840;42.702;23.296;2023-09-08T06:28:49;95548.72;;;21.54;100.00
15477;BME280;7840;42.702;23.296;2023-09-08T06:31:17;95548.97;;;21.67;100.00
15477;BME280;7840;42.702;23.296;2023-09-08T06:33:44;95548.19;;;21.66;100.00
15477;BME280;7840;42.702;23.296;2023-09-08T06:36:13;95554.59;;;21.70;98.57
15477;BME280;7840;42.702;23.296;2023-09-08T06:38:41;95567.44;;;21.73;96.06
15477;BME280;7840;42.702;23.296;2023-09-08T06:41:12;95558.63;;;21.81;97.63
15477;BME280;7840;42.702;23.296;2023-09-08T06:43:39;95573.16;;;21.94;96.29
15477;BME280;7840;42.702;23.296;2023-09-08T06:46:08;95555.31;;;22.07;89.21
15477;BME280;7840;42.702;23.296;2023-09-08T06:48:36;95556.25;;;22.25;88.71
15477;BME280;7840;42.702;23.296;2023-09-08T06:51:04;95561.22;;;22.31;84.97
15477;BME280;7840;42.702;23.296;2023-09-08T06:53:33;95564.56;;;22.37;83.18
15477;BME280;7840;42.702;23.296;2023-09-08T06:56:00;95556.38;;;22.51;82.60
15477;BME280;7840;42.702;23.296;2023-09-08T06:58:28;95563.44;;;22.60;79.89
15477;BME280;7840;42.702;23.296;2023-09-08T07:00:56;95565.22;;;22.65;79.17
15477;BME280;7840;42.702;23.296;2023-09-08T07:03:23;95566.13;;;22.91;79.81
15477;BME280;7840;42.702;23.296;2023-09-08T07:05:52;95576.34;;;23.03;77.47
15477;BME280;7840;42.702;23.296;2023-09-08T07:08:19;95563.03;;;23.15;73.67
15477;BME280;7840;42.702;23.296;2023-09-08T07:10:52;95566.72;;;23.28;71.28
15477;BME280;7840;42.702;23.296;2023-09-08T07:13:20;95567.53;;;23.37;71.78
15477;BME280;7840;42.702;23.296;2023-09-08T07:15:48;95565.47;;;23.52;70.17
15477;BME280;7840;42.702;23.296;2023-09-08T07:18:15;95568.25;;;23.78;68.50
15477;BME280;7840;42.702;23.296;2023-09-08T07:20:46;95555.19;;;23.71;64.72
15477;BME280;7840;42.702;23.296;2023-09-08T07:23:16;95561.56;;;23.75;64.42
15477;BME280;7840;42.702;23.296;2023-09-08T07:25:47;95558.84;;;23.92;64.11
15477;BME280;7840;42.702;23.296;2023-09-08T07:28:15;95558.50;;;24.11;65.35
15477;BME280;7840;42.702;23.296;2023-09-08T07:30:43;95555.00;;;24.19;63.27
15477;BME280;7840;42.702;23.296;2023-09-08T07:33:10;95555.91;;;24.49;62.41
15477;BME280;7840;42.702;23.296;2023-09-08T07:35:39;95567.19;;;24.60;61.01
15477;BME280;7840;42.702;23.296;2023-09-08T07:38:07;95557.50;;;24.50;60.46
15477;BME280;7840;42.702;23.296;2023-09-08T07:40:34;95549.97;;;24.65;60.47
15477;BME280;7840;42.702;23.296;2023-09-08T07:43:03;95554.16;;;24.53;59.97
15477;BME280;7840;42.702;23.296;2023-09-08T07:45:31;95547.84;;;24.79;61.80
15477;BME280;7840;42.702;23.296;2023-09-08T07:47:59;95555.06;;;25.04;58.74
15477;BME280;7840;42.702;23.296;2023-09-08T07:50:27;95548.50;;;25.14;57.67
15477;BME280;7840;42.702;23.296;2023-09-08T07:52:56;95553.19;;;25.34;57.89
15477;BME280;7840;42.702;23.296;2023-09-08T07:55:25;95545.50;;;25.57;55.75
15477;BME280;7840;42.702;23.296;2023-09-08T07:57:54;95545.88;;;25.26;55.81
15477;BME280;7840;42.702;23.296;2023-09-08T08:00:24;95546.22;;;25.46;55.49
15477;BME280;7840;42.702;23.296;2023-09-08T08:02:55;95537.44;;;25.49;54.92
15477;BME280;7840;42.702;23.296;2023-09-08T08:05:23;95551.59;;;25.54;54.82
15477;BME280;7840;42.702;23.296;2023-09-08T08:07:51;95543.25;;;25.59;54.71
15477;BME280;7840;42.702;23.296;2023-09-08T08:10:19;95545.94;;;25.89;54.29
15477;BME280;7840;42.702;23.296;2023-09-08T08:12:47;95539.47;;;25.81;53.13
15477;BME280;7840;42.702;23.296;2023-09-08T08:15:18;95535.34;;;25.96;53.72
15477;BME280;7840;42.702;23.296;2023-09-08T08:17:47;95551.44;;;26.01;52.40
15477;BME280;7840;42.702;23.296;2023-09-08T08:20:15;95545.94;;;25.89;53.22
15477;BME280;7840;42.702;23.296;2023-09-08T08:22:44;95538.41;;;25.95;53.18
15477;BME280;7840;42.702;23.296;2023-09-08T08:25:12;95544.34;;;26.09;53.00
15477;BME280;7840;42.702;23.296;2023-09-08T08:27:40;95533.88;;;26.32;51.61
15477;BME280;7840;42.702;23.296;2023-09-08T08:30:08;95539.44;;;26.35;52.09
15477;BME280;7840;42.702;23.296;2023-09-08T08:32:37;95540.84;;;26.21;51.96
15477;BME280;7840;42.702;23.296;2023-09-08T08:35:06;95540.44;;;26.31;53.26
15477;BME280;7840;42.702;23.296;2023-09-08T08:37:34;95535.25;;;26.38;53.93
15477;BME280;7840;42.702;23.296;2023-09-08T08:40:02;95534.88;;;26.27;54.57
15477;BME280;7840;42.702;23.296;2023-09-08T08:42:35;95528.72;;;25.85;53.81
15477;BME280;7840;42.702;23.296;2023-09-08T08:45:04;95530.06;;;26.12;53.31
15477;BME280;7840;42.702;23.296;2023-09-08T08:47:35;95518.25;;;25.96;54.29
15477;BME280;7840;42.702;23.296;2023-09-08T08:50:03;95527.34;;;25.79;53.75
15477;BME280;7840;42.702;23.296;2023-09-08T08:52:32;95518.00;;;25.68;54.70
15477;BME280;7840;42.702;23.296;2023-09-08T08:55:00;95524.22;;;25.89;55.36
15477;BME280;7840;42.702;23.296;2023-09-08T08:57:28;95516.25;;;26.05;53.40
15477;BME280;7840;42.702;23.296;2023-09-08T08:59:55;95523.53;;;25.92;52.54
15477;BME280;7840;42.702;23.296;2023-09-08T09:02:26;95522.91;;;25.95;52.62
15477;BME280;7840;42.702;23.296;2023-09-08T09:07:25;95523.22;;;25.73;52.48
15477;BME280;7840;42.702;23.296;2023-09-08T09:09:55;95517.47;;;25.95;52.55
15477;BME280;7840;42.702;23.296;2023-09-08T09:12:23;95520.38;;;25.90;52.89
15477;BME280;7840;42.702;23.296;2023-09-08T09:14:53;95521.25;;;25.82;52.70
15477;BME280;7840;42.702;23.296;2023-09-08T09:17:21;95515.66;;;25.57;53.15
15477;BME280;7840;42.702;23.296;2023-09-08T09:19:48;95522.56;;;25.04;55.01
15477;BME280;7840;42.702;23.296;2023-09-08T09:22:20;95524.59;;;24.78;55.96
15477;BME280;7840;42.702;23.296;2023-09-08T09:24:48;95525.63;;;24.94;55.20
15477;BME280;7840;42.702;23.296;2023-09-08T09:27:17;95515.31;;;25.17;55.41
15477;BME280;7840;42.702;23.296;2023-09-08T09:29:46;95524.03;;;25.23;54.55
15477;BME280;7840;42.702;23.296;2023-09-08T09:32:14;95514.00;;;25.23;54.43
15477;BME280;7840;42.702;23.296;2023-09-08T09:34:49;95517.84;;;25.22;54.96
15477;BME280;7840;42.702;23.296;2023-09-08T09:37:19;95514.50;;;25.17;55.15
15477;BME280;7840;42.702;23.296;2023-09-08T09:39:49;95523.50;;;25.08;55.56
15477;BME280;7840;42.702;23.296;2023-09-08T09:42:18;95519.59;;;25.18;55.77
15477;BME280;7840;42.702;23.296;2023-09-08T09:44:47;95516.38;;;25.25;55.00
15477;BME280;7840;42.702;23.296;2023-09-08T09:47:16;95517.50;;;25.45;55.35
15477;BME280;7840;42.702;23.296;2023-09-08T09:49:45;95512.09;;;25.65;55.57
15477;BME280;7840;42.702;23.296;2023-09-08T09:52:13;95514.94;;;25.90;55.05
15477;BME280;7840;42.702;23.296;2023-09-08T09:54:42;95510.06;;;26.16;53.59
15477;BME280;7840;42.702;23.296;2023-09-08T09:57:13;95518.28;;;26.41;53.45
15477;BME280;7840;42.702;23.296;2023-09-08T09:59:44;95504.78;;;26.78;52.08
15477;BME280;7840;42.702;23.296;2023-09-08T10:02:15;95499.78;;;26.80;52.26
15477;BME280;7840;42.702;23.296;2023-09-08T10:04:48;95494.56;;;26.75;52.42
15477;BME280;7840;42.702;23.296;2023-09-08T10:07:17;95497.63;;;26.73;52.79
15477;BME280;7840;42.702;23.296;2023-09-08T10:09:45;95491.28;;;26.69;52.64
15477;BME280;7840;42.702;23.296;2023-09-08T10:12:14;95482.78;;;26.83;52.72
15477;BME280;7840;42.702;23.296;2023-09-08T10:14:47;95483.69;;;27.23;52.41
15477;BME280;7840;42.702;23.296;2023-09-08T10:17:20;95479.41;;;27.63;50.90
15477;BME280;7840;42.702;23.296;2023-09-08T10:19:56;95485.97;;;27.21;51.05
15477;BME280;7840;42.702;23.296;2023-09-08T10:22:28;95480.75;;;27.04;52.06
15477;BME280;7840;42.702;23.296;2023-09-08T10:24:58;95482.78;;;26.95;52.33
15477;BME280;7840;42.702;23.296;2023-09-08T10:27:27;95491.16;;;26.65;53.36
15477;BME280;7840;42.702;23.296;2023-09-08T10:29:56;95488.66;;;26.60;54.57
15477;BME280;7840;42.702;23.296;2023-09-08T10:32:24;95487.22;;;26.63;54.39
15477;BME280;7840;42.702;23.296;2023-09-08T10:34:52;95483.69;;;26.75;52.85
15477;BME280;7840;42.702;23.296;2023-09-08T10:37:25;95480.31;;;26.65;52.80
15477;BME280;7840;42.702;23.296;2023-09-08T10:39:55;95479.59;;;26.68;54.07
15477;BME280;7840;42.702;23.296;2023-09-08T10:42:25;95474.63;;;26.83;53.61
15477;BME280;7840;42.702;23.296;2023-09-08T10:45:14;95472.16;;;26.65;53.67
15477;BME280;7840;42.702;23.296;2023-09-08T10:47:55;95474.41;;;26.51;54.59
15477;BME280;7840;42.702;23.296;2023-09-08T10:50:31;95474.19;;;26.56;54.16
15477;BME280;7840;42.702;23.296;2023-09-08T10:53:07;95474.19;;;26.93;52.31
15477;BME280;7840;42.702;23.296;2023-09-08T10:55:41;95477.16;;;27.12;53.61
15477;BME280;7840;42.702;23.296;2023-09-08T10:58:18;95472.38;;;26.85;52.67
15477;BME280;7840;42.702;23.296;2023-09-08T11:00:50;95479.16;;;27.03;53.02
15477;BME280;7840;42.702;23.296;2023-09-08T11:03:27;95473.72;;;27.27;51.05
15477;BME280;7840;42.702;23.296;2023-09-08T11:05:56;95464.00;;;27.95;50.38
15477;BME280;7840;42.702;23.296;2023-09-08T11:08:24;95468.16;;;27.76;49.65
15477;BME280;7840;42.702;23.296;2023-09-08T11:10:52;95473.66;;;27.52;50.39
15477;BME280;7840;42.702;23.296;2023-09-08T11:13:19;95465.00;;;27.22;51.01
15477;BME280;7840;42.702;23.296;2023-09-08T11:15:52;95461.91;;;27.36;51.61
15477;BME280;7840;42.702;23.296;2023-09-08T11:18:26;95455.03;;;27.26;51.66
15477;BME280;7840;42.702;23.296;2023-09-08T11:20:54;95455.38;;;26.88;53.03
15477;BME280;7840;42.702;23.296;2023-09-08T11:23:21;95465.34;;;27.08;51.73
15477;BME280;7840;42.702;23.296;2023-09-08T11:25:50;95452.53;;;27.21;51.67
15477;BME280;7840;42.702;23.296;2023-09-08T11:28:18;95447.66;;;26.90;52.67
15477;BME280;7840;42.702;23.296;2023-09-08T11:30:49;95448.50;;;27.43;51.33
15477;BME280;7840;42.702;23.296;2023-09-08T11:33:18;95440.28;;;28.11;50.27
15477;BME280;7840;42.702;23.296;2023-09-08T11:35:46;95435.09;;;28.06;49.51
15477;BME280;7840;42.702;23.296;2023-09-08T11:38:14;95432.25;;;28.30;48.70
15477;BME280;7840;42.702;23.296;2023-09-08T11:40:41;95444.28;;;28.29;47.71
15477;BME280;7840;42.702;23.296;2023-09-08T11:43:09;95429.97;;;28.32;47.99
15477;BME280;7840;42.702;23.296;2023-09-08T11:45:37;95415.16;;;28.97;46.37
15477;BME280;7840;42.702;23.296;2023-09-08T11:48:06;95426.00;;;29.48;45.17
15477;BME280;7840;42.702;23.296;2023-09-08T11:50:34;95413.66;;;29.73;43.70
15477;BME280;7840;42.702;23.296;2023-09-08T11:53:02;95421.34;;;29.67;43.93
15477;BME280;7840;42.702;23.296;2023-09-08T11:55:30;95406.28;;;29.96;43.27
15477;BME280;7840;42.702;23.296;2023-09-08T11:57:57;95405.72;;;29.87;43.36
15477;BME280;7840;42.702;23.296;2023-09-08T12:00:28;95405.00;;;29.90;43.49
15477;BME280;7840;42.702;23.296;2023-09-08T12:02:58;95409.56;;;29.63;43.88
15477;BME280;7840;42.702;23.296;2023-09-08T12:05:37;95406.81;;;30.25;42.72
15477;BME280;7840;42.702;23.296;2023-09-08T12:08:06;95417.06;;;30.32;42.11
15477;BME280;7840;42.702;23.296;2023-09-08T12:10:39;95417.94;;;30.36;41.32
15477;BME280;7840;42.702;23.296;2023-09-08T12:13:07;95409.78;;;30.16;40.58
15477;BME280;7840;42.702;23.296;2023-09-08T12:15:36;95400.94;;;30.23;39.74
15477;BME280;7840;42.702;23.296;2023-09-08T12:18:06;95401.34;;;30.06;39.87
15477;BME280;7840;42.702;23.296;2023-09-08T12:20:35;95391.22;;;29.83;41.25
15477;BME280;7840;42.702;23.296;2023-09-08T12:23:05;95396.63;;;30.22;41.88
15477;BME280;7840;42.702;23.296;2023-09-08T12:25:44;95381.88;;;30.53;39.40
15477;BME280;7840;42.702;23.296;2023-09-08T12:28:12;95386.91;;;30.47;39.97
15477;BME280;7840;42.702;23.296;2023-09-08T12:30:40;95389.84;;;30.88;39.71
15477;BME280;7840;42.702;23.296;2023-09-08T12:33:08;95384.81;;;31.20;39.03
15477;BME280;7840;42.702;23.296;2023-09-08T12:35:37;95379.97;;;31.07;38.84
15477;BME280;7840;42.702;23.296;2023-09-08T12:38:06;95378.03;;;31.37;39.02
15477;BME280;7840;42.702;23.296;2023-09-08T12:40:36;95383.78;;;31.62;38.10
15477;BME280;7840;42.702;23.296;2023-09-08T12:43:04;95381.75;;;31.52;37.91
15477;BME280;7840;42.702;23.296;2023-09-08T12:45:32;95385.72;;;31.28;38.21
15477;BME280;7840;42.702;23.296;2023-09-08T12:48:01;95381.16;;;30.56;39.77
15477;BME280;7840;42.702;23.296;2023-09-08T12:50:29;95380.75;;;30.08;40.43
15477;BME280;7840;42.702;23.296;2023-09-08T12:52:57;95373.84;;;29.72;41.60
15477;BME280;7840;42.702;23.296;2023-09-08T12:55:26;95377.72;;;29.71;42.02
15477;BME280;7840;42.702;23.296;2023-09-08T12:57:54;95379.66;;;29.32;42.51
15477;BME280;7840;42.702;23.296;2023-09-08T13:00:22;95375.28;;;29.27;43.53
15477;BME280;7840;42.702;23.296;2023-09-08T13:02:50;95376.88;;;29.67;42.63
15477;BME280;7840;42.702;23.296;2023-09-08T13:05:18;95386.00;;;29.55;42.49
15477;BME280;7840;42.702;23.296;2023-09-08T13:07:59;95374.84;;;29.25;42.79